sensor_id;sensor_type;location;lat;lon;timestamp;pressure;altitude;pressure_sealevel;temperature
35582;BMP180;21687;48.900;9.188;2022-08-16T00:01:48;97798.00;;;17.60
35582;BMP180;21687;48.900;9.188;2022-08-16T00:04:15;97791.00;;;17.60
35582;BMP180;21687;48.900;9.188;2022-08-16T00:06:42;97801.00;;;17.60
35582;BMP180;21687;48.900;9.188;2022-08-16T00:09:09;97804.00;;;17.60
35582;BMP180;21687;48.900;9.188;2022-08-16T00:11:36;97797.00;;;17.60
35582;BMP180;21687;48.900;9.188;2022-08-16T00:14:05;97798.00;;;17.60
35582;BMP180;21687;48.900;9.188;2022-08-16T00:16:33;97801.00;;;17.50
35582;BMP180;21687;48.900;9.188;2022-08-16T00:19:00;97795.00;;;17.50
35582;BMP180;21687;48.900;9.188;2022-08-16T00:21:26;97808.00;;;17.60
35582;BMP180;21687;48.900;9.188;2022-08-16T00:23:53;97807.00;;;17.60
35582;BMP180;21687;48.900;9.188;2022-08-16T00:26:19;97806.00;;;17.70
35582;BMP180;21687;48.900;9.188;2022-08-16T00:28:45;97803.00;;;17.80
35582;BMP180;21687;48.900;9.188;2022-08-16T00:31:11;97805.00;;;17.80
35582;BMP180;21687;48.900;9.188;2022-08-16T00:33:38;97805.00;;;17.90
35582;BMP180;21687;48.900;9.188;2022-08-16T00:36:05;97804.00;;;17.90
35582;BMP180;21687;48.900;9.188;2022-08-16T00:38:32;97807.00;;;18.00
35582;BMP180;21687;48.900;9.188;2022-08-16T00:40:59;97807.00;;;18.10
35582;BMP180;21687;48.900;9.188;2022-08-16T00:43:29;97808.00;;;18.10
35582;BMP180;21687;48.900;9.188;2022-08-16T00:48:43;97810.00;;;18.00
35582;BMP180;21687;48.900;9.188;2022-08-16T00:51:11;97808.00;;;17.90
35582;BMP180;21687;48.900;9.188;2022-08-16T00:53:38;97803.00;;;17.90
35582;BMP180;21687;48.900;9.188;2022-08-16T00:56:08;97805.00;;;17.90
35582;BMP180;21687;48.900;9.188;2022-08-16T00:58:39;97807.00;;;17.90
35582;BMP180;21687;48.900;9.188;2022-08-16T01:01:07;97796.00;;;18.00
35582;BMP180;21687;48.900;9.188;2022-08-16T01:03:35;97809.00;;;18.00
35582;BMP180;21687;48.900;9.188;2022-08-16T01:06:03;97814.00;;;18.00
35582;BMP180;21687;48.900;9.188;2022-08-16T01:08:30;97813.00;;;18.10
35582;BMP180;21687;48.900;9.188;2022-08-16T01:10:57;97816.00;;;18.10
35582;BMP180;21687;48.900;9.188;2022-08-16T01:13:30;97819.00;;;18.10
35582;BMP180;21687;48.900;9.188;2022-08-16T01:16:13;97819.00;;;18.10
35582;BMP180;21687;48.900;9.188;2022-08-16T01:18:53;97818.00;;;17.90
35582;BMP180;21687;48.900;9.188;2022-08-16T01:21:49;97818.00;;;17.80
35582;BMP180;21687;48.900;9.188;2022-08-16T01:27:20;97813.00;;;17.60
35582;BMP180;21687;48.900;9.188;2022-08-16T01:30:09;97814.00;;;17.50
35582;BMP180;21687;48.900;9.188;2022-08-16T01:32:38;97818.00;;;17.40
35582;BMP180;21687;48.900;9.188;2022-08-16T01:35:23;97824.00;;;17.20
35582;BMP180;21687;48.900;9.188;2022-08-16T01:37:54;97814.00;;;17.20
35582;BMP180;21687;48.900;9.188;2022-08-16T01:40:25;97821.00;;;17.20
35582;BMP180;21687;48.900;9.188;2022-08-16T01:42:52;97815.00;;;17.00
35582;BMP180;21687;48.900;9.188;2022-08-16T01:45:20;97825.00;;;16.90
35582;BMP180;21687;48.900;9.188;2022-08-16T01:47:49;97815.00;;;16.80
35582;BMP180;21687;48.900;9.188;2022-08-16T01:50:15;97821.00;;;16.70
35582;BMP180;21687;48.900;9.188;2022-08-16T01:52:43;97817.00;;;16.70
35582;BMP180;21687;48.900;9.188;2022-08-16T01:55:09;97814.00;;;16.70
35582;BMP180;21687;48.900;9.188;2022-08-16T01:57:36;97819.00;;;16.50
35582;BMP180;21687;48.900;9.188;2022-08-16T02:00:05;97815.00;;;16.50
35582;BMP180;21687;48.900;9.188;2022-08-16T02:02:31;97817.00;;;16.30
35582;BMP180;21687;48.900;9.188;2022-08-16T02:04:58;97822.00;;;16.30
35582;BMP180;21687;48.900;9.188;2022-08-16T02:07:25;97819.00;;;16.20
35582;BMP180;21687;48.900;9.188;2022-08-16T02:09:52;97810.00;;;16.10
35582;BMP180;21687;48.900;9.188;2022-08-16T02:12:19;97809.00;;;16.00
35582;BMP180;21687;48.900;9.188;2022-08-16T02:14:45;97806.00;;;15.90
35582;BMP180;21687;48.900;9.188;2022-08-16T02:17:12;97806.00;;;15.80
35582;BMP180;21687;48.900;9.188;2022-08-16T02:19:42;97808.00;;;15.70
35582;BMP180;21687;48.900;9.188;2022-08-16T02:22:12;97812.00;;;15.70
35582;BMP180;21687;48.900;9.188;2022-08-16T02:24:40;97805.00;;;15.70
35582;BMP180;21687;48.900;9.188;2022-08-16T02:27:07;97806.00;;;15.60
35582;BMP180;21687;48.900;9.188;2022-08-16T02:29:33;97819.00;;;15.50
35582;BMP180;21687;48.900;9.188;2022-08-16T02:31:59;97815.00;;;15.50
35582;BMP180;21687;48.900;9.188;2022-08-16T02:34:26;97812.00;;;15.40
35582;BMP180;21687;48.900;9.188;2022-08-16T02:36:52;97808.00;;;15.30
35582;BMP180;21687;48.900;9.188;2022-08-16T02:39:19;97798.00;;;15.20
35582;BMP180;21687;48.900;9.188;2022-08-16T02:41:48;97789.00;;;15.20
35582;BMP180;21687;48.900;9.188;2022-08-16T02:44:15;97791.00;;;15.20
35582;BMP180;21687;48.900;9.188;2022-08-16T02:46:42;97797.00;;;15.10
35582;BMP180;21687;48.900;9.188;2022-08-16T02:49:09;97803.00;;;15.10
35582;BMP180;21687;48.900;9.188;2022-08-16T02:51:37;97795.00;;;15.30
35582;BMP180;21687;48.900;9.188;2022-08-16T02:54:05;97797.00;;;15.30
35582;BMP180;21687;48.900;9.188;2022-08-16T02:56:33;97793.00;;;15.30
35582;BMP180;21687;48.900;9.188;2022-08-16T02:59:03;97794.00;;;15.30
35582;BMP180;21687;48.900;9.188;2022-08-16T03:01:31;97790.00;;;15.30
35582;BMP180;21687;48.900;9.188;2022-08-16T03:03:58;97790.00;;;15.20
35582;BMP180;21687;48.900;9.188;2022-08-16T03:06:26;97794.00;;;15.30
35582;BMP180;21687;48.900;9.188;2022-08-16T03:08:52;97789.00;;;15.20
35582;BMP180;21687;48.900;9.188;2022-08-16T03:11:19;97796.00;;;15.20
35582;BMP180;21687;48.900;9.188;2022-08-16T03:13:49;97794.00;;;15.20
35582;BMP180;21687;48.900;9.188;2022-08-16T03:16:16;97792.00;;;15.30
35582;BMP180;21687;48.900;9.188;2022-08-16T03:18:42;97785.00;;;15.20
35582;BMP180;21687;48.900;9.188;2022-08-16T03:21:08;97783.00;;;15.20
35582;BMP180;21687;48.900;9.188;2022-08-16T03:23:35;97774.00;;;15.20
35582;BMP180;21687;48.900;9.188;2022-08-16T03:26:01;97773.00;;;15.20
35582;BMP180;21687;48.900;9.188;2022-08-16T03:28:28;97768.00;;;15.20
35582;BMP180;21687;48.900;9.188;2022-08-16T03:30:54;97767.00;;;15.20
35582;BMP180;21687;48.900;9.188;2022-08-16T03:33:20;97761.00;;;15.10
35582;BMP180;21687;48.900;9.188;2022-08-16T03:35:46;97758.00;;;15.10
35582;BMP180;21687;48.900;9.188;2022-08-16T03:38:15;97766.00;;;15.20
35582;BMP180;21687;48.900;9.188;2022-08-16T03:40:41;97769.00;;;15.20
35582;BMP180;21687;48.900;9.188;2022-08-16T03:43:09;97775.00;;;15.10
35582;BMP180;21687;48.900;9.188;2022-08-16T03:45:37;97771.00;;;15.00
35582;BMP180;21687;48.900;9.188;2022-08-16T03:48:06;97776.00;;;14.90
35582;BMP180;21687;48.900;9.188;2022-08-16T03:50:32;97769.00;;;15.00
35582;BMP180;21687;48.900;9.188;2022-08-16T03:53:00;97768.00;;;14.90
35582;BMP180;21687;48.900;9.188;2022-08-16T03:55:27;97772.00;;;14.90
35582;BMP180;21687;48.900;9.188;2022-08-16T03:57:53;97778.00;;;14.90
35582;BMP180;21687;48.900;9.188;2022-08-16T04:00:23;97774.00;;;14.80
35582;BMP180;21687;48.900;9.188;2022-08-16T04:02:52;97774.00;;;14.70
35582;BMP180;21687;48.900;9.188;2022-08-16T04:05:18;97773.00;;;14.80
35582;BMP180;21687;48.900;9.188;2022-08-16T04:07:45;97762.00;;;14.70
35582;BMP180;21687;48.900;9.188;2022-08-16T04:10:12;97772.00;;;14.60
35582;BMP180;21687;48.900;9.188;2022-08-16T04:12:40;97773.00;;;14.60
35582;BMP180;21687;48.900;9.188;2022-08-16T04:15:10;97768.00;;;14.60
35582;BMP180;21687;48.900;9.188;2022-08-16T04:17:38;97769.00;;;14.80
35582;BMP180;21687;48.900;9.188;2022-08-16T04:20:06;97769.00;;;14.70
35582;BMP180;21687;48.900;9.188;2022-08-16T04:22:34;97771.00;;;14.70
35582;BMP180;21687;48.900;9.188;2022-08-16T04:25:01;97769.00;;;14.80
35582;BMP180;21687;48.900;9.188;2022-08-16T04:27:27;97774.00;;;14.80
35582;BMP180;21687;48.900;9.188;2022-08-16T04:33:17;97787.00;;;14.90
35582;BMP180;21687;48.900;9.188;2022-08-16T04:35:43;97784.00;;;15.10
35582;BMP180;21687;48.900;9.188;2022-08-16T04:38:10;97784.00;;;15.10
35582;BMP180;21687;48.900;9.188;2022-08-16T04:40:36;97791.00;;;15.20
35582;BMP180;21687;48.900;9.188;2022-08-16T04:43:03;97803.00;;;15.30
35582;BMP180;21687;48.900;9.188;2022-08-16T04:45:29;97792.00;;;15.40
35582;BMP180;21687;48.900;9.188;2022-08-16T04:47:56;97786.00;;;15.70
35582;BMP180;21687;48.900;9.188;2022-08-16T04:50:24;97777.00;;;15.80
35582;BMP180;21687;48.900;9.188;2022-08-16T04:52:53;97798.00;;;16.00
35582;BMP180;21687;48.900;9.188;2022-08-16T04:55:22;97805.00;;;16.30
35582;BMP180;21687;48.900;9.188;2022-08-16T04:57:51;97809.00;;;16.70
35582;BMP180;21687;48.900;9.188;2022-08-16T05:00:20;97803.00;;;17.00
35582;BMP180;21687;48.900;9.188;2022-08-16T05:02:54;97813.00;;;17.50
35582;BMP180;21687;48.900;9.188;2022-08-16T05:05:21;97805.00;;;17.80
35582;BMP180;21687;48.900;9.188;2022-08-16T05:07:48;97808.00;;;18.20
35582;BMP180;21687;48.900;9.188;2022-08-16T05:10:15;97813.00;;;18.40
35582;BMP180;21687;48.900;9.188;2022-08-16T05:12:41;97800.00;;;18.70
35582;BMP180;21687;48.900;9.188;2022-08-16T05:15:08;97803.00;;;18.60
35582;BMP180;21687;48.900;9.188;2022-08-16T05:17:35;97804.00;;;18.50
35582;BMP180;21687;48.900;9.188;2022-08-16T05:20:04;97805.00;;;18.60
35582;BMP180;21687;48.900;9.188;2022-08-16T05:22:30;97804.00;;;18.50
35582;BMP180;21687;48.900;9.188;2022-08-16T05:24:56;97804.00;;;18.30
35582;BMP180;21687;48.900;9.188;2022-08-16T05:27:23;97816.00;;;18.40
35582;BMP180;21687;48.900;9.188;2022-08-16T05:29:49;97813.00;;;18.30
35582;BMP180;21687;48.900;9.188;2022-08-16T05:32:15;97819.00;;;18.30
35582;BMP180;21687;48.900;9.188;2022-08-16T05:34:41;97827.00;;;18.40
35582;BMP180;21687;48.900;9.188;2022-08-16T05:37:08;97819.00;;;18.40
35582;BMP180;21687;48.900;9.188;2022-08-16T05:39:34;97825.00;;;18.50
35582;BMP180;21687;48.900;9.188;2022-08-16T05:42:00;97830.00;;;18.60
35582;BMP180;21687;48.900;9.188;2022-08-16T05:44:27;97833.00;;;18.70
35582;BMP180;21687;48.900;9.188;2022-08-16T05:46:56;97829.00;;;18.80
35582;BMP180;21687;48.900;9.188;2022-08-16T05:49:25;97823.00;;;18.90
35582;BMP180;21687;48.900;9.188;2022-08-16T05:51:52;97823.00;;;18.90
35582;BMP180;21687;48.900;9.188;2022-08-16T05:54:22;97819.00;;;18.90
35582;BMP180;21687;48.900;9.188;2022-08-16T05:56:49;97810.00;;;18.90
35582;BMP180;21687;48.900;9.188;2022-08-16T05:59:16;97819.00;;;18.90
35582;BMP180;21687;48.900;9.188;2022-08-16T06:01:43;97826.00;;;19.00
35582;BMP180;21687;48.900;9.188;2022-08-16T06:04:16;97831.00;;;19.00
35582;BMP180;21687;48.900;9.188;2022-08-16T06:06:43;97823.00;;;18.90
35582;BMP180;21687;48.900;9.188;2022-08-16T06:09:11;97827.00;;;18.90
35582;BMP180;21687;48.900;9.188;2022-08-16T06:11:38;97830.00;;;18.70
35582;BMP180;21687;48.900;9.188;2022-08-16T06:14:05;97832.00;;;18.50
35582;BMP180;21687;48.900;9.188;2022-08-16T06:16:31;97844.00;;;18.60
35582;BMP180;21687;48.900;9.188;2022-08-16T06:18:58;97840.00;;;18.60
35582;BMP180;21687;48.900;9.188;2022-08-16T06:21:24;97843.00;;;18.60
35582;BMP180;21687;48.900;9.188;2022-08-16T06:23:50;97838.00;;;18.60
35582;BMP180;21687;48.900;9.188;2022-08-16T06:26:17;97839.00;;;18.60
35582;BMP180;21687;48.900;9.188;2022-08-16T06:28:44;97851.00;;;18.60
35582;BMP180;21687;48.900;9.188;2022-08-16T06:31:11;97843.00;;;18.80
35582;BMP180;21687;48.900;9.188;2022-08-16T06:33:38;97842.00;;;18.80
35582;BMP180;21687;48.900;9.188;2022-08-16T06:36:04;97844.00;;;18.90
35582;BMP180;21687;48.900;9.188;2022-08-16T06:38:35;97844.00;;;19.00
35582;BMP180;21687;48.900;9.188;2022-08-16T06:41:02;97847.00;;;19.00
35582;BMP180;21687;48.900;9.188;2022-08-16T06:43:29;97842.00;;;19.40
35582;BMP180;21687;48.900;9.188;2022-08-16T06:45:55;97845.00;;;19.80
35582;BMP180;21687;48.900;9.188;2022-08-16T06:48:22;97836.00;;;20.20
35582;BMP180;21687;48.900;9.188;2022-08-16T06:50:48;97841.00;;;20.50
35582;BMP180;21687;48.900;9.188;2022-08-16T06:53:15;97836.00;;;20.90
35582;BMP180;21687;48.900;9.188;2022-08-16T06:55:42;97849.00;;;21.30
35582;BMP180;21687;48.900;9.188;2022-08-16T06:58:09;97849.00;;;21.80
35582;BMP180;21687;48.900;9.188;2022-08-16T07:00:36;97846.00;;;22.20
35582;BMP180;21687;48.900;9.188;2022-08-16T07:03:04;97846.00;;;22.40
35582;BMP180;21687;48.900;9.188;2022-08-16T07:05:31;97851.00;;;22.70
35582;BMP180;21687;48.900;9.188;2022-08-16T07:07:58;97860.00;;;22.90
35582;BMP180;21687;48.900;9.188;2022-08-16T07:10:25;97865.00;;;23.10
35582;BMP180;21687;48.900;9.188;2022-08-16T07:12:52;97865.00;;;23.20
35582;BMP180;21687;48.900;9.188;2022-08-16T07:15:19;97860.00;;;23.20
35582;BMP180;21687;48.900;9.188;2022-08-16T07:17:46;97865.00;;;23.40
35582;BMP180;21687;48.900;9.188;2022-08-16T07:20:14;97865.00;;;23.80
35582;BMP180;21687;48.900;9.188;2022-08-16T07:22:41;97859.00;;;24.00
35582;BMP180;21687;48.900;9.188;2022-08-16T07:25:11;97858.00;;;24.30
35582;BMP180;21687;48.900;9.188;2022-08-16T07:27:38;97860.00;;;24.50
35582;BMP180;21687;48.900;9.188;2022-08-16T07:30:07;97861.00;;;24.50
35582;BMP180;21687;48.900;9.188;2022-08-16T07:32:35;97861.00;;;24.80
35582;BMP180;21687;48.900;9.188;2022-08-16T07:35:01;97860.00;;;24.60
35582;BMP180;21687;48.900;9.188;2022-08-16T07:37:27;97860.00;;;24.60
35582;BMP180;21687;48.900;9.188;2022-08-16T07:39:54;97859.00;;;24.80
35582;BMP180;21687;48.900;9.188;2022-08-16T07:42:20;97852.00;;;24.90
35582;BMP180;21687;48.900;9.188;2022-08-16T07:44:46;97854.00;;;24.60
35582;BMP180;21687;48.900;9.188;2022-08-16T07:47:14;97860.00;;;24.80
35582;BMP180;21687;48.900;9.188;2022-08-16T07:49:40;97860.00;;;24.70
35582;BMP180;21687;48.900;9.188;2022-08-16T07:52:06;97859.00;;;25.10
35582;BMP180;21687;48.900;9.188;2022-08-16T07:54:33;97868.00;;;25.40
35582;BMP180;21687;48.900;9.188;2022-08-16T07:56:59;97871.00;;;25.60
35582;BMP180;21687;48.900;9.188;2022-08-16T07:59:25;97866.00;;;25.70
35582;BMP180;21687;48.900;9.188;2022-08-16T08:01:53;97867.00;;;26.10
35582;BMP180;21687;48.900;9.188;2022-08-16T08:04:20;97869.00;;;25.70
35582;BMP180;21687;48.900;9.188;2022-08-16T08:06:46;97876.00;;;25.70
35582;BMP180;21687;48.900;9.188;2022-08-16T08:09:12;97868.00;;;25.50
35582;BMP180;21687;48.900;9.188;2022-08-16T08:11:39;97879.00;;;25.70
35582;BMP180;21687;48.900;9.188;2022-08-16T08:14:05;97880.00;;;25.80
35582;BMP180;21687;48.900;9.188;2022-08-16T08:16:32;97885.00;;;26.10
35582;BMP180;21687;48.900;9.188;2022-08-16T08:18:59;97883.00;;;26.30
35582;BMP180;21687;48.900;9.188;2022-08-16T08:21:26;97888.00;;;26.70
35582;BMP180;21687;48.900;9.188;2022-08-16T08:23:53;97899.00;;;27.20
35582;BMP180;21687;48.900;9.188;2022-08-16T08:26:19;97895.00;;;26.80
35582;BMP180;21687;48.900;9.188;2022-08-16T08:28:47;97896.00;;;27.00
35582;BMP180;21687;48.900;9.188;2022-08-16T08:31:13;97896.00;;;26.90
35582;BMP180;21687;48.900;9.188;2022-08-16T08:33:39;97904.00;;;27.10
35582;BMP180;21687;48.900;9.188;2022-08-16T08:36:06;97891.00;;;27.40
35582;BMP180;21687;48.900;9.188;2022-08-16T08:38:36;97898.00;;;27.80
35582;BMP180;21687;48.900;9.188;2022-08-16T08:41:04;97898.00;;;28.30
35582;BMP180;21687;48.900;9.188;2022-08-16T08:43:33;97899.00;;;28.30
35582;BMP180;21687;48.900;9.188;2022-08-16T08:46:01;97896.00;;;28.00
35582;BMP180;21687;48.900;9.188;2022-08-16T08:48:27;97897.00;;;27.90
35582;BMP180;21687;48.900;9.188;2022-08-16T08:50:54;97910.00;;;27.50
35582;BMP180;21687;48.900;9.188;2022-08-16T08:53:20;97906.00;;;27.00
35582;BMP180;21687;48.900;9.188;2022-08-16T08:55:46;97909.00;;;26.80
35582;BMP180;21687;48.900;9.188;2022-08-16T08:58:14;97912.00;;;26.90
35582;BMP180;21687;48.900;9.188;2022-08-16T09:00:41;97909.00;;;27.00
35582;BMP180;21687;48.900;9.188;2022-08-16T09:03:07;97913.00;;;27.20
35582;BMP180;21687;48.900;9.188;2022-08-16T09:05:34;97923.00;;;27.20
35582;BMP180;21687;48.900;9.188;2022-08-16T09:08:01;97917.00;;;27.20
35582;BMP180;21687;48.900;9.188;2022-08-16T09:10:30;97918.00;;;26.90
35582;BMP180;21687;48.900;9.188;2022-08-16T09:13:00;97923.00;;;27.00
35582;BMP180;21687;48.900;9.188;2022-08-16T09:15:27;97918.00;;;27.20
35582;BMP180;21687;48.900;9.188;2022-08-16T09:17:53;97922.00;;;27.10
35582;BMP180;21687;48.900;9.188;2022-08-16T09:20:25;97920.00;;;27.60
35582;BMP180;21687;48.900;9.188;2022-08-16T09:22:52;97912.00;;;28.10
35582;BMP180;21687;48.900;9.188;2022-08-16T09:25:19;97921.00;;;28.80
35582;BMP180;21687;48.900;9.188;2022-08-16T09:27:46;97921.00;;;29.40
35582;BMP180;21687;48.900;9.188;2022-08-16T09:30:12;97919.00;;;28.60
35582;BMP180;21687;48.900;9.188;2022-08-16T09:32:38;97907.00;;;28.00
35582;BMP180;21687;48.900;9.188;2022-08-16T09:35:05;97924.00;;;26.40
35582;BMP180;21687;48.900;9.188;2022-08-16T09:37:32;97921.00;;;25.90
35582;BMP180;21687;48.900;9.188;2022-08-16T09:39:59;97920.00;;;25.60
35582;BMP180;21687;48.900;9.188;2022-08-16T09:42:27;97923.00;;;25.20
35582;BMP180;21687;48.900;9.188;2022-08-16T09:44:54;97926.00;;;25.00
35582;BMP180;21687;48.900;9.188;2022-08-16T09:47:20;97925.00;;;25.00
35582;BMP180;21687;48.900;9.188;2022-08-16T09:49:47;97925.00;;;24.80
35582;BMP180;21687;48.900;9.188;2022-08-16T09:52:15;97921.00;;;24.70
35582;BMP180;21687;48.900;9.188;2022-08-16T09:54:41;97928.00;;;24.20
35582;BMP180;21687;48.900;9.188;2022-08-16T09:57:08;97925.00;;;24.00
35582;BMP180;21687;48.900;9.188;2022-08-16T09:59:34;97921.00;;;23.70
35582;BMP180;21687;48.900;9.188;2022-08-16T10:02:00;97920.00;;;23.60
35582;BMP180;21687;48.900;9.188;2022-08-16T10:04:27;97909.00;;;23.70
35582;BMP180;21687;48.900;9.188;2022-08-16T10:06:55;97907.00;;;24.20
35582;BMP180;21687;48.900;9.188;2022-08-16T10:09:21;97898.00;;;25.10
35582;BMP180;21687;48.900;9.188;2022-08-16T10:11:48;97905.00;;;25.30
35582;BMP180;21687;48.900;9.188;2022-08-16T10:14:33;97908.00;;;25.50
35582;BMP180;21687;48.900;9.188;2022-08-16T10:17:02;97908.00;;;25.70
35582;BMP180;21687;48.900;9.188;2022-08-16T10:19:29;97911.00;;;25.70
35582;BMP180;21687;48.900;9.188;2022-08-16T10:21:56;97907.00;;;25.90
35582;BMP180;21687;48.900;9.188;2022-08-16T10:24:22;97913.00;;;26.20
35582;BMP180;21687;48.900;9.188;2022-08-16T10:26:49;97910.00;;;26.90
35582;BMP180;21687;48.900;9.188;2022-08-16T10:29:15;97910.00;;;27.30
35582;BMP180;21687;48.900;9.188;2022-08-16T10:31:42;97905.00;;;27.40
35582;BMP180;21687;48.900;9.188;2022-08-16T10:34:08;97911.00;;;26.80
35582;BMP180;21687;48.900;9.188;2022-08-16T10:36:35;97909.00;;;27.00
35582;BMP180;21687;48.900;9.188;2022-08-16T10:39:02;97923.00;;;26.80
35582;BMP180;21687;48.900;9.188;2022-08-16T10:41:29;97917.00;;;26.80
35582;BMP180;21687;48.900;9.188;2022-08-16T10:43:55;97914.00;;;27.20
35582;BMP180;21687;48.900;9.188;2022-08-16T10:46:22;97924.00;;;27.20
35582;BMP180;21687;48.900;9.188;2022-08-16T10:48:48;97918.00;;;27.30
35582;BMP180;21687;48.900;9.188;2022-08-16T10:51:14;97920.00;;;27.30
35582;BMP180;21687;48.900;9.188;2022-08-16T10:53:41;97922.00;;;27.50
35582;BMP180;21687;48.900;9.188;2022-08-16T10:56:10;97907.00;;;27.30
35582;BMP180;21687;48.900;9.188;2022-08-16T10:58:38;97916.00;;;27.10
35582;BMP180;21687;48.900;9.188;2022-08-16T11:01:07;97924.00;;;27.10
35582;BMP180;21687;48.900;9.188;2022-08-16T11:03:34;97919.00;;;27.00
35582;BMP180;21687;48.900;9.188;2022-08-16T11:06:02;97922.00;;;27.00
35582;BMP180;21687;48.900;9.188;2022-08-16T11:08:30;97917.00;;;27.20
35582;BMP180;21687;48.900;9.188;2022-08-16T11:10:56;97926.00;;;27.70
35582;BMP180;21687;48.900;9.188;2022-08-16T11:13:24;97924.00;;;28.10
35582;BMP180;21687;48.900;9.188;2022-08-16T11:15:52;97917.00;;;28.40
35582;BMP180;21687;48.900;9.188;2022-08-16T11:18:18;97915.00;;;28.70
35582;BMP180;21687;48.900;9.188;2022-08-16T11:20:45;97925.00;;;28.80
35582;BMP180;21687;48.900;9.188;2022-08-16T11:23:13;97919.00;;;29.00
35582;BMP180;21687;48.900;9.188;2022-08-16T11:25:40;97923.00;;;28.90
35582;BMP180;21687;48.900;9.188;2022-08-16T11:28:08;97926.00;;;28.30
35582;BMP180;21687;48.900;9.188;2022-08-16T11:30:35;97930.00;;;28.40
35582;BMP180;21687;48.900;9.188;2022-08-16T11:33:01;97925.00;;;28.40
35582;BMP180;21687;48.900;9.188;2022-08-16T11:35:31;97927.00;;;28.70
35582;BMP180;21687;48.900;9.188;2022-08-16T11:38:03;97926.00;;;29.00
35582;BMP180;21687;48.900;9.188;2022-08-16T11:40:37;97922.00;;;29.20
35582;BMP180;21687;48.900;9.188;2022-08-16T11:43:04;97919.00;;;29.10
35582;BMP180;21687;48.900;9.188;2022-08-16T11:45:33;97921.00;;;29.20
35582;BMP180;21687;48.900;9.188;2022-08-16T11:48:01;97915.00;;;29.10
35582;BMP180;21687;48.900;9.188;2022-08-16T11:50:27;97903.00;;;28.90
35582;BMP180;21687;48.900;9.188;2022-08-16T11:52:58;97909.00;;;29.10
35582;BMP180;21687;48.900;9.188;2022-08-16T11:55:25;97908.00;;;28.70
35582;BMP180;21687;48.900;9.188;2022-08-16T11:57:52;97911.00;;;28.30
35582;BMP180;21687;48.900;9.188;2022-08-16T12:00:18;97907.00;;;28.60
35582;BMP180;21687;48.900;9.188;2022-08-16T12:02:44;97902.00;;;28.70
35582;BMP180;21687;48.900;9.188;2022-08-16T12:05:13;97899.00;;;28.70
35582;BMP180;21687;48.900;9.188;2022-08-16T12:07:40;97904.00;;;28.60
35582;BMP180;21687;48.900;9.188;2022-08-16T12:10:10;97906.00;;;28.50
35582;BMP180;21687;48.900;9.188;2022-08-16T12:12:37;97905.00;;;28.80
35582;BMP180;21687;48.900;9.188;2022-08-16T12:15:04;97904.00;;;28.50
35582;BMP180;21687;48.900;9.188;2022-08-16T12:17:31;97911.00;;;28.20
35582;BMP180;21687;48.900;9.188;2022-08-16T12:19:59;97900.00;;;28.20
35582;BMP180;21687;48.900;9.188;2022-08-16T12:22:25;97904.00;;;28.40
35582;BMP180;21687;48.900;9.188;2022-08-16T12:24:51;97899.00;;;28.40
35582;BMP180;21687;48.900;9.188;2022-08-16T12:27:20;97903.00;;;28.30
35582;BMP180;21687;48.900;9.188;2022-08-16T12:29:46;97889.00;;;28.30
35582;BMP180;21687;48.900;9.188;2022-08-16T12:32:13;97890.00;;;28.40
35582;BMP180;21687;48.900;9.188;2022-08-16T12:34:40;97880.00;;;28.60
35582;BMP180;21687;48.900;9.188;2022-08-16T12:37:07;97893.00;;;28.40
35582;BMP180;21687;48.900;9.188;2022-08-16T12:39:34;97895.00;;;28.30
35582;BMP180;21687;48.900;9.188;2022-08-16T12:42:00;97892.00;;;28.10
35582;BMP180;21687;48.900;9.188;2022-08-16T12:44:26;97894.00;;;28.10
35582;BMP180;21687;48.900;9.188;2022-08-16T12:46:53;97896.00;;;27.90
35582;BMP180;21687;48.900;9.188;2022-08-16T12:49:57;97883.00;;;27.70
35582;BMP180;21687;48.900;9.188;2022-08-16T12:52:24;97882.00;;;27.70
35582;BMP180;21687;48.900;9.188;2022-08-16T12:54:50;97882.00;;;27.90
35582;BMP180;21687;48.900;9.188;2022-08-16T12:57:16;97879.00;;;27.70
35582;BMP180;21687;48.900;9.188;2022-08-16T12:59:43;97871.00;;;27.50
35582;BMP180;21687;48.900;9.188;2022-08-16T13:02:09;97875.00;;;27.30
35582;BMP180;21687;48.900;9.188;2022-08-16T13:04:36;97882.00;;;27.40
35582;BMP180;21687;48.900;9.188;2022-08-16T13:07:02;97861.00;;;27.40
35582;BMP180;21687;48.900;9.188;2022-08-16T13:09:30;97867.00;;;27.40
35582;BMP180;21687;48.900;9.188;2022-08-16T13:12:06;97863.00;;;27.80
35582;BMP180;21687;48.900;9.188;2022-08-16T13:14:42;97858.00;;;27.90
35582;BMP180;21687;48.900;9.188;2022-08-16T13:17:11;97856.00;;;27.90
35582;BMP180;21687;48.900;9.188;2022-08-16T13:19:39;97857.00;;;28.00
35582;BMP180;21687;48.900;9.188;2022-08-16T13:22:06;97868.00;;;28.10
35582;BMP180;21687;48.900;9.188;2022-08-16T13:24:33;97860.00;;;28.20
35582;BMP180;21687;48.900;9.188;2022-08-16T13:26:59;97861.00;;;28.30
35582;BMP180;21687;48.900;9.188;2022-08-16T13:29:25;97859.00;;;28.30
35582;BMP180;21687;48.900;9.188;2022-08-16T13:31:52;97856.00;;;28.30
35582;BMP180;21687;48.900;9.188;2022-08-16T13:34:18;97859.00;;;28.40
35582;BMP180;21687;48.900;9.188;2022-08-16T13:36:45;97855.00;;;28.60
35582;BMP180;21687;48.900;9.188;2022-08-16T13:39:11;97855.00;;;28.30
35582;BMP180;21687;48.900;9.188;2022-08-16T13:41:38;97851.00;;;28.20
35582;BMP180;21687;48.900;9.188;2022-08-16T13:44:04;97857.00;;;28.10
35582;BMP180;21687;48.900;9.188;2022-08-16T13:46:31;97853.00;;;27.90
35582;BMP180;21687;48.900;9.188;2022-08-16T13:48:58;97848.00;;;28.10
35582;BMP180;21687;48.900;9.188;2022-08-16T13:51:25;97857.00;;;28.30
35582;BMP180;21687;48.900;9.188;2022-08-16T13:53:56;97849.00;;;28.60
35582;BMP180;21687;48.900;9.188;2022-08-16T13:56:23;97849.00;;;28.70
35582;BMP180;21687;48.900;9.188;2022-08-16T13:58:51;97843.00;;;28.70
35582;BMP180;21687;48.900;9.188;2022-08-16T14:01:18;97847.00;;;28.60
35582;BMP180;21687;48.900;9.188;2022-08-16T14:03:45;97841.00;;;28.60
35582;BMP180;21687;48.900;9.188;2022-08-16T14:06:13;97829.00;;;28.50
35582;BMP180;21687;48.900;9.188;2022-08-16T14:08:40;97837.00;;;28.30
35582;BMP180;21687;48.900;9.188;2022-08-16T14:11:07;97829.00;;;28.00
35582;BMP180;21687;48.900;9.188;2022-08-16T14:13:36;97841.00;;;28.00
35582;BMP180;21687;48.900;9.188;2022-08-16T14:16:02;97839.00;;;27.80
35582;BMP180;21687;48.900;9.188;2022-08-16T14:18:28;97838.00;;;27.80
35582;BMP180;21687;48.900;9.188;2022-08-16T14:20:55;97837.00;;;27.70